Time;durP1;ratioP1;P1;durP2;ratioP2;P2;SDS_P1;SDS_P2;PMS_P1;PMS_P2;Temp;Humidity;BMP_temperature;BMP_pressure;BME280_temperature;BME280_humidity;BME280_pressure;Samples;Min_cycle;Max_cycle;Signal;HPM_P1;HPM_P2
2023/05/28 00:00:06;;;;;;;;;;;;;;;10.85;100.00;102004.59;5022992;28;19921;-86
2023/05/28 00:02:32;;;;;;;;;;;;;;;10.81;100.00;102008.41;5053026;28;20308;-87
2023/05/28 00:04:57;;;;;;;;;;;;;;;10.77;100.00;101996.97;5026579;28;19939;-87
2023/05/28 00:07:23;;;;;;;;;;;;;;;10.78;100.00;102006.75;5027845;28;19921;-87
2023/05/28 00:09:49;;;;;;;;;;;;;;;10.76;100.00;102003.28;5020757;28;19932;-87
2023/05/28 00:12:14;;;;;;;;;;;;;;;10.75;100.00;102006.09;5030658;28;19917;-87
2023/05/28 00:14:39;;;;;;;;;;;;;;;10.72;100.00;102003.59;5040609;28;19917;-87
2023/05/28 00:17:04;;;;;;;;;;;;;;;10.73;100.00;102005.31;5032293;28;20286;-87
2023/05/28 00:19:29;;;;;;;;;;;;;;;10.75;100.00;102000.72;5028457;28;20003;-88
2023/05/28 00:21:56;;;;;;;;;;;;;;;10.70;100.00;102000.13;5028638;28;19932;-87
2023/05/28 00:24:21;;;;;;;;;;;;;;;10.60;100.00;102002.50;5031509;28;19917;-87
2023/05/28 00:26:47;;;;;;;;;;;;;;;10.61;100.00;102001.53;5043232;28;19917;-88
2023/05/28 00:29:13;;;;;;;;;;;;;;;10.57;100.00;102003.56;5040157;28;19917;-87
2023/05/28 00:31:39;;;;;;;;;;;;;;;10.59;100.00;102006.13;5025577;28;19979;-87
2023/05/28 00:34:04;;;;;;;;;;;;;;;10.60;100.00;102006.03;5030061;28;20356;-86
2023/05/28 00:36:31;;;;;;;;;;;;;;;10.57;100.00;102006.25;5033611;28;19938;-87
2023/05/28 00:38:56;;;;;;;;;;;;;;;10.47;100.00;102011.25;5031345;28;19955;-86
2023/05/28 00:41:22;;;;;;;;;;;;;;;10.45;100.00;102010.53;5032747;28;19960;-86
2023/05/28 00:43:50;;;;;;;;;;;;;;;10.42;100.00;102010.69;5039509;28;20326;-86
2023/05/28 00:46:17;;;;;;;;;;;;;;;10.40;100.00;102017.09;5028311;28;19920;-86
2023/05/28 00:48:43;;;;;;;;;;;;;;;10.44;100.00;102021.34;5040912;28;20286;-86
2023/05/28 00:51:08;;;;;;;;;;;;;;;10.47;100.00;102013.09;5030751;28;19921;-87
2023/05/28 00:53:33;;;;;;;;;;;;;;;10.52;100.00;102016.38;5027672;28;19956;-86
2023/05/28 00:55:58;;;;;;;;;;;;;;;10.50;100.00;102012.94;5040373;28;19920;-86
2023/05/28 00:58:24;;;;;;;;;;;;;;;10.44;100.00;102014.16;5026279;28;19917;-87
2023/05/28 01:00:50;;;;;;;;;;;;;;;10.45;100.00;102018.56;5044082;28;19912;-87
2023/05/28 01:03:16;;;;;;;;;;;;;;;10.45;100.00;102009.63;5028487;28;19921;-87
2023/05/28 01:05:42;;;;;;;;;;;;;;;10.43;100.00;102009.75;5049551;28;19940;-87
2023/05/28 01:08:07;;;;;;;;;;;;;;;10.43;100.00;102012.44;5038339;28;19917;-87
2023/05/28 01:10:32;;;;;;;;;;;;;;;10.47;100.00;102011.25;5027685;28;19936;-87
2023/05/28 01:12:58;;;;;;;;;;;;;;;10.47;100.00;102010.41;5025507;28;19924;-87
2023/05/28 01:15:24;;;;;;;;;;;;;;;10.46;100.00;102006.84;5048953;28;19947;-87
2023/05/28 01:17:50;;;;;;;;;;;;;;;10.42;100.00;102008.00;5023789;28;20371;-87
2023/05/28 01:20:15;;;;;;;;;;;;;;;10.41;100.00;102005.41;5045366;28;19925;-87
2023/05/28 01:22:45;;;;;;;;;;;;;;;10.41;100.00;102003.59;5029144;28;19928;-87
2023/05/28 01:25:12;;;;;;;;;;;;;;;10.36;100.00;102011.88;5025015;28;19920;-87
2023/05/28 01:27:40;;;;;;;;;;;;;;;10.35;100.00;102004.75;5041610;28;20279;-87
2023/05/28 01:30:09;;;;;;;;;;;;;;;10.33;100.00;102001.31;5029475;28;19940;-87
2023/05/28 01:32:35;;;;;;;;;;;;;;;10.33;100.00;101998.63;5025858;28;19925;-87
2023/05/28 01:35:00;;;;;;;;;;;;;;;10.26;100.00;102004.44;5025752;28;19975;-87
2023/05/28 01:37:28;;;;;;;;;;;;;;;10.22;100.00;102006.44;5028912;28;20000;-87
2023/05/28 01:39:54;;;;;;;;;;;;;;;10.26;100.00;102010.69;5031717;28;19921;-87
2023/05/28 01:42:19;;;;;;;;;;;;;;;10.25;100.00;102013.44;5019668;28;19967;-87
2023/05/28 01:44:44;;;;;;;;;;;;;;;10.19;100.00;102014.66;5022150;28;19921;-86
2023/05/28 01:47:12;;;;;;;;;;;;;;;10.17;100.00;102009.41;5026738;28;20317;-87
2023/05/28 01:49:38;;;;;;;;;;;;;;;10.20;100.00;102009.19;5042999;28;19949;-87
2023/05/28 01:52:04;;;;;;;;;;;;;;;10.23;100.00;102008.19;5027933;28;19959;-87
2023/05/28 01:54:31;;;;;;;;;;;;;;;10.24;100.00;102012.59;5029177;28;19971;-87
2023/05/28 01:56:57;;;;;;;;;;;;;;;10.24;100.00;102000.97;5028676;28;20430;-87
2023/05/28 01:59:22;;;;;;;;;;;;;;;10.25;100.00;102000.03;5020341;28;20007;-87
2023/05/28 02:01:47;;;;;;;;;;;;;;;10.29;100.00;101997.09;5048955;28;19968;-87
2023/05/28 02:04:14;;;;;;;;;;;;;;;10.28;100.00;101999.84;5027586;28;19971;-87
2023/05/28 02:06:40;;;;;;;;;;;;;;;10.20;100.00;101994.94;5030816;28;19921;-87
2023/05/28 02:09:06;;;;;;;;;;;;;;;10.18;100.00;101995.03;5031415;28;19970;-87
2023/05/28 02:11:31;;;;;;;;;;;;;;;10.13;100.00;101989.06;5030688;28;20426;-87
2023/05/28 02:13:56;;;;;;;;;;;;;;;10.11;100.00;101985.59;5058296;28;19963;-87
2023/05/28 02:16:22;;;;;;;;;;;;;;;10.09;100.00;101989.31;5022883;28;19932;-87
2023/05/28 02:18:49;;;;;;;;;;;;;;;10.08;100.00;101984.88;5063495;28;20022;-86
2023/05/28 02:21:15;;;;;;;;;;;;;;;10.01;100.00;101977.22;5046040;28;19943;-87
2023/05/28 02:23:42;;;;;;;;;;;;;;;9.97;100.00;101982.81;5025710;28;19925;-87
2023/05/28 02:26:07;;;;;;;;;;;;;;;9.95;100.00;101982.03;5028657;28;19929;-87
2023/05/28 02:28:33;;;;;;;;;;;;;;;9.90;100.00;101979.63;5039697;28;19954;-87
2023/05/28 02:30:58;;;;;;;;;;;;;;;9.84;100.00;101978.19;5058313;28;20176;-87
2023/05/28 02:33:23;;;;;;;;;;;;;;;9.74;100.00;101983.19;5019130;28;19926;-86
2023/05/28 02:35:49;;;;;;;;;;;;;;;9.67;100.00;101984.47;5020961;28;20306;-86
2023/05/28 02:38:15;;;;;;;;;;;;;;;9.59;100.00;101984.03;5041702;28;19921;-86
2023/05/28 02:40:41;;;;;;;;;;;;;;;9.51;100.00;101989.81;5043386;28;20397;-87
2023/05/28 02:43:06;;;;;;;;;;;;;;;9.41;100.00;101983.22;5027072;28;20387;-86
2023/05/28 02:45:31;;;;;;;;;;;;;;;9.34;100.00;101985.38;5024588;28;19916;-87
2023/05/28 02:47:56;;;;;;;;;;;;;;;9.25;100.00;101983.22;5029381;28;20137;-87
2023/05/28 02:50:22;;;;;;;;;;;;;;;9.20;100.00;101983.44;5027501;28;20011;-87
2023/05/28 02:52:47;;;;;;;;;;;;;;;9.12;100.00;101983.88;5021366;28;20002;-87
2023/05/28 02:55:12;;;;;;;;;;;;;;;9.11;100.00;102000.03;5027383;28;20342;-87
2023/05/28 02:57:37;;;;;;;;;;;;;;;9.10;100.00;102000.97;5024421;28;19954;-86
2023/05/28 03:00:03;;;;;;;;;;;;;;;9.11;100.00;102000.03;5020642;28;19917;-86
2023/05/28 03:02:28;;;;;;;;;;;;;;;9.12;100.00;101991.91;5024263;28;19929;-87
2023/05/28 03:04:53;;;;;;;;;;;;;;;9.17;100.00;101996.16;5041631;28;19917;-87
2023/05/28 03:07:19;;;;;;;;;;;;;;;9.21;100.00;101995.91;5024530;28;19967;-88
2023/05/28 03:09:44;;;;;;;;;;;;;;;9.23;100.00;102002.03;5026773;28;19927;-87
2023/05/28 03:12:10;;;;;;;;;;;;;;;9.25;100.00;101993.94;5023725;28;19921;-87
2023/05/28 03:14:35;;;;;;;;;;;;;;;9.20;100.00;101987.94;5026101;28;19916;-87
2023/05/28 03:17:00;;;;;;;;;;;;;;;9.19;100.00;101989.75;5022802;28;20411;-87
2023/05/28 03:19:26;;;;;;;;;;;;;;;9.17;100.00;101991.66;5027155;28;19921;-88
2023/05/28 03:21:51;;;;;;;;;;;;;;;9.19;100.00;101987.06;5026481;28;20363;-87
2023/05/28 03:24:16;;;;;;;;;;;;;;;9.21;100.00;101987.00;5028814;28;19917;-87
2023/05/28 03:26:43;;;;;;;;;;;;;;;9.22;100.00;101991.41;5029723;28;19921;-87
2023/05/28 03:29:08;;;;;;;;;;;;;;;9.21;100.00;101995.91;5027062;28;19920;-87
2023/05/28 03:31:42;;;;;;;;;;;;;;;9.19;100.00;102000.47;5032875;28;19923;-87
2023/05/28 03:34:07;;;;;;;;;;;;;;;9.14;100.00;102003.41;5044244;28;19917;-87
2023/05/28 03:36:34;;;;;;;;;;;;;;;9.08;100.00;102009.09;5045523;28;19921;-86
2023/05/28 03:38:59;;;;;;;;;;;;;;;9.05;100.00;102005.72;5029526;28;19917;-87
2023/05/28 03:41:25;;;;;;;;;;;;;;;9.07;100.00;102003.81;5029934;28;19943;-87
2023/05/28 03:43:53;;;;;;;;;;;;;;;9.08;100.00;102009.09;5026014;28;20302;-86
2023/05/28 03:46:18;;;;;;;;;;;;;;;9.09;100.00;102005.47;5045221;28;19924;-87
2023/05/28 03:48:44;;;;;;;;;;;;;;;9.12;100.00;102004.44;5030593;28;20385;-86
2023/05/28 03:51:09;;;;;;;;;;;;;;;9.13;100.00;102003.50;5031391;28;20383;-86
2023/05/28 03:53:35;;;;;;;;;;;;;;;9.20;100.00;101993.31;5030904;28;19974;-87
2023/05/28 03:56:01;;;;;;;;;;;;;;;9.22;100.00;102002.13;5044001;28;20040;-87
2023/05/28 03:58:26;;;;;;;;;;;;;;;9.10;100.00;102004.50;5031967;28;20022;-87
2023/05/28 04:00:51;;;;;;;;;;;;;;;9.11;100.00;102008.06;5027142;28;19924;-87
2023/05/28 04:03:16;;;;;;;;;;;;;;;9.10;100.00;102003.66;5043763;28;19929;-87
2023/05/28 04:05:42;;;;;;;;;;;;;;;9.07;100.00;102004.66;5030487;28;19995;-86
2023/05/28 04:08:08;;;;;;;;;;;;;;;9.08;100.00;102003.72;5029889;28;19923;-87
2023/05/28 04:10:33;;;;;;;;;;;;;;;9.07;100.00;102011.84;5031188;28;19920;-87
2023/05/28 04:12:58;;;;;;;;;;;;;;;9.14;100.00;102010.56;5044816;28;19925;-87
2023/05/28 04:15:24;;;;;;;;;;;;;;;9.15;100.00;102010.50;5031716;28;19925;-87
2023/05/28 04:17:49;;;;;;;;;;;;;;;9.26;100.00;102019.78;5032447;28;19936;-87
2023/05/28 04:20:14;;;;;;;;;;;;;;;9.39;100.00;102015.47;5038020;28;20004;-87
2023/05/28 04:22:39;;;;;;;;;;;;;;;9.51;100.00;102018.47;5030724;28;19929;-87
2023/05/28 04:25:05;;;;;;;;;;;;;;;9.57;100.00;102015.41;5030337;28;19924;-87
2023/05/28 04:27:30;;;;;;;;;;;;;;;9.68;100.00;102013.03;5029057;28;19916;-86
2023/05/28 04:29:56;;;;;;;;;;;;;;;9.80;100.00;102018.69;5025313;28;19970;-87
2023/05/28 04:32:23;;;;;;;;;;;;;;;9.94;100.00;102023.25;5045635;28;19967;-87
2023/05/28 04:34:49;;;;;;;;;;;;;;;10.08;100.00;102030.50;5031442;28;20043;-86
2023/05/28 04:37:17;;;;;;;;;;;;;;;10.23;100.00;102026.09;5029775;28;20422;-86
2023/05/28 04:39:42;;;;;;;;;;;;;;;10.32;100.00;102031.81;5027204;28;20406;-87
2023/05/28 04:42:09;;;;;;;;;;;;;;;10.43;100.00;102025.84;5050353;28;19921;-87
2023/05/28 04:44:34;;;;;;;;;;;;;;;10.56;100.00;102030.50;5028730;28;20028;-87
2023/05/28 04:46:59;;;;;;;;;;;;;;;10.68;100.00;102028.91;5047394;28;20036;-87
2023/05/28 04:49:25;;;;;;;;;;;;;;;10.81;100.00;102032.59;5041608;28;19945;-87
2023/05/28 04:51:50;;;;;;;;;;;;;;;10.93;100.00;102031.84;5044586;28;19923;-88
2023/05/28 04:54:15;;;;;;;;;;;;;;;11.06;100.00;102031.13;5026096;28;20367;-87
2023/05/28 04:56:40;;;;;;;;;;;;;;;11.21;100.00;102037.38;5043741;28;19921;-86
2023/05/28 04:59:09;;;;;;;;;;;;;;;11.33;100.00;102041.97;5033091;28;19991;-87
2023/05/28 05:01:34;;;;;;;;;;;;;;;11.44;100.00;102035.94;5045097;28;19924;-87
2023/05/28 05:04:00;;;;;;;;;;;;;;;11.58;100.00;102029.69;5043817;28;19960;-87
2023/05/28 05:06:25;;;;;;;;;;;;;;;11.71;100.00;102032.47;5063632;28;19917;-87
2023/05/28 05:08:50;;;;;;;;;;;;;;;11.84;100.00;102035.22;5049284;28;19963;-87
2023/05/28 05:11:16;;;;;;;;;;;;;;;11.97;100.00;102032.59;5042917;28;19990;-87
2023/05/28 05:13:42;;;;;;;;;;;;;;;12.11;100.00;102029.94;5049899;28;20020;-86
2023/05/28 05:16:07;;;;;;;;;;;;;;;12.25;100.00;102030.84;5045134;28;20000;-87
2023/05/28 05:18:32;;;;;;;;;;;;;;;12.34;100.00;102032.06;5045479;28;20011;-87
2023/05/28 05:20:57;;;;;;;;;;;;;;;12.49;100.00;102032.84;5027863;28;20000;-87
2023/05/28 05:23:23;;;;;;;;;;;;;;;12.65;100.00;102028.19;5046694;28;19975;-87
2023/05/28 05:25:48;;;;;;;;;;;;;;;12.77;100.00;102034.56;5040921;28;19924;-87
2023/05/28 05:28:13;;;;;;;;;;;;;;;12.87;100.00;102041.03;5042503;28;19916;-87
2023/05/28 05:30:38;;;;;;;;;;;;;;;13.00;100.00;102043.75;5045808;28;19927;-86
2023/05/28 05:33:04;;;;;;;;;;;;;;;13.11;100.00;102039.47;5043207;28;20142;-87
2023/05/28 05:35:29;;;;;;;;;;;;;;;13.22;100.00;102049.50;5027655;28;19921;-86
2023/05/28 05:37:55;;;;;;;;;;;;;;;13.34;100.00;102054.88;5045726;28;19928;-86
2023/05/28 05:40:20;;;;;;;;;;;;;;;13.43;100.00;102045.31;5064246;28;19927;-86
2023/05/28 05:42:45;;;;;;;;;;;;;;;13.56;100.00;102047.16;5030980;28;20397;-87
2023/05/28 05:45:10;;;;;;;;;;;;;;;13.67;100.00;102041.81;5047503;28;19963;-88
2023/05/28 05:47:37;;;;;;;;;;;;;;;13.76;100.00;102030.38;5049580;28;20302;-87
2023/05/28 05:50:03;;;;;;;;;;;;;;;13.91;100.00;102036.50;5047048;28;19948;-88
2023/05/28 05:52:28;;;;;;;;;;;;;;;13.95;100.00;102037.13;5047002;28;20366;-88
2023/05/28 05:54:53;;;;;;;;;;;;;;;14.15;100.00;102038.38;5046766;28;19917;-89
2023/05/28 05:57:19;;;;;;;;;;;;;;;14.33;100.00;102037.97;5039951;28;19921;-86
2023/05/28 05:59:44;;;;;;;;;;;;;;;14.49;100.00;102043.06;5044234;28;20087;-87
2023/05/28 06:02:09;;;;;;;;;;;;;;;14.72;100.00;102043.19;5037111;28;19960;-86
2023/05/28 06:04:35;;;;;;;;;;;;;;;14.88;100.00;102035.66;5044128;28;20287;-85
2023/05/28 06:07:03;;;;;;;;;;;;;;;15.10;100.00;102037.53;5044598;28;19927;-86
2023/05/28 06:09:29;;;;;;;;;;;;;;;15.36;100.00;102044.59;5045250;28;19990;-87
2023/05/28 06:11:54;;;;;;;;;;;;;;;15.52;100.00;102036.09;5040143;28;20367;-85
2023/05/28 06:14:20;;;;;;;;;;;;;;;15.64;100.00;102035.09;5028191;28;19924;-86
2023/05/28 06:16:45;;;;;;;;;;;;;;;15.67;100.00;102029.44;5022331;28;19997;-85
2023/05/28 06:19:11;;;;;;;;;;;;;;;15.88;100.00;102037.72;5028121;28;19932;-86
2023/05/28 06:21:36;;;;;;;;;;;;;;;16.07;100.00;102035.34;5045206;28;20011;-86
2023/05/28 06:24:01;;;;;;;;;;;;;;;16.25;100.00;102036.53;5036125;28;19931;-86
2023/05/28 06:26:27;;;;;;;;;;;;;;;16.42;100.00;102037.81;5042720;28;19943;-86
2023/05/28 06:28:52;;;;;;;;;;;;;;;16.52;100.00;102034.34;5040570;28;19913;-86
2023/05/28 06:31:19;;;;;;;;;;;;;;;16.49;100.00;102036.31;5040224;28;19971;-88
2023/05/28 06:33:45;;;;;;;;;;;;;;;16.77;100.00;102025.84;5052805;28;19964;-86
2023/05/28 06:36:10;;;;;;;;;;;;;;;16.81;100.00;102022.88;5040981;28;19983;-86
2023/05/28 06:38:36;;;;;;;;;;;;;;;16.83;100.00;102021.75;5040869;28;19923;-86
2023/05/28 06:41:01;;;;;;;;;;;;;;;17.03;100.00;102016.47;5020863;28;19921;-86
2023/05/28 06:43:26;;;;;;;;;;;;;;;17.25;100.00;102023.59;5042634;28;20371;-87
2023/05/28 06:45:53;;;;;;;;;;;;;;;17.49;100.00;102028.69;5045514;28;19956;-87
2023/05/28 06:48:18;;;;;;;;;;;;;;;17.65;100.00;102022.75;5042860;28;19916;-86
2023/05/28 06:50:43;;;;;;;;;;;;;;;17.78;100.00;102024.41;5027595;28;20639;-86
2023/05/28 06:53:09;;;;;;;;;;;;;;;18.01;100.00;102024.19;5046351;28;19917;-88
2023/05/28 06:55:34;;;;;;;;;;;;;;;18.26;100.00;102029.09;5024166;28;20413;-86
2023/05/28 06:57:59;;;;;;;;;;;;;;;18.34;100.00;102031.09;5025468;28;19948;-86
2023/05/28 07:00:25;;;;;;;;;;;;;;;18.34;99.18;102031.09;5042772;28;19931;-85
2023/05/28 07:02:50;;;;;;;;;;;;;;;18.55;100.00;102025.53;5043900;28;20034;-87
2023/05/28 07:05:15;;;;;;;;;;;;;;;18.68;100.00;102030.69;5020702;28;19917;-86
2023/05/28 07:07:40;;;;;;;;;;;;;;;18.92;98.42;102031.25;5037986;28;20382;-86
2023/05/28 07:10:06;;;;;;;;;;;;;;;18.95;97.21;102039.09;5036945;28;19917;-86
2023/05/28 07:12:31;;;;;;;;;;;;;;;18.97;88.18;102039.84;5032622;28;19921;-87
2023/05/28 07:14:56;;;;;;;;;;;;;;;19.14;90.69;102038.22;5038856;28;19917;-87
2023/05/28 07:17:22;;;;;;;;;;;;;;;19.07;83.42;102037.13;5036144;28;20355;-85
2023/05/28 07:19:47;;;;;;;;;;;;;;;19.09;85.50;102038.69;5022902;28;19916;-86
2023/05/28 07:22:14;;;;;;;;;;;;;;;18.95;85.07;102042.72;5038249;28;19994;-87
2023/05/28 07:24:39;;;;;;;;;;;;;;;18.92;83.46;102042.13;5039762;28;19927;-87
2023/05/28 07:27:06;;;;;;;;;;;;;;;18.69;83.38;102045.13;5035808;28;19940;-88
2023/05/28 07:29:33;;;;;;;;;;;;;;;18.77;85.05;102041.72;5039082;28;20427;-88
2023/05/28 07:31:59;;;;;;;;;;;;;;;18.82;84.33;102042.13;5018034;28;19920;-87
2023/05/28 07:34:25;;;;;;;;;;;;;;;18.73;86.56;102049.28;5033077;28;19921;-89
2023/05/28 07:36:50;;;;;;;;;;;;;;;18.59;82.95;102046.00;5035270;28;20028;-87
2023/05/28 07:39:16;;;;;;;;;;;;;;;18.63;87.74;102049.28;5028963;28;19928;-88
2023/05/28 07:41:41;;;;;;;;;;;;;;;18.38;88.09;102046.13;5034304;28;19936;-88
2023/05/28 07:44:08;;;;;;;;;;;;;;;18.22;84.62;102046.69;5038296;28;19931;-87
2023/05/28 07:46:34;;;;;;;;;;;;;;;18.32;86.74;102056.72;5031092;28;19947;-89
2023/05/28 07:48:59;;;;;;;;;;;;;;;18.53;83.88;102062.06;5032091;28;19924;-88
2023/05/28 07:51:27;;;;;;;;;;;;;;;18.72;84.06;102061.16;5034968;28;19931;-87
2023/05/28 07:53:53;;;;;;;;;;;;;;;18.89;82.31;102049.56;5014685;28;19920;-87
2023/05/28 07:56:19;;;;;;;;;;;;;;;19.22;88.94;102059.28;5034332;28;19972;-86
2023/05/28 07:58:45;;;;;;;;;;;;;;;19.46;78.45;102051.50;5031264;28;19964;-86
2023/05/28 08:01:10;;;;;;;;;;;;;;;19.60;77.05;102060.16;5011334;28;19925;-86
2023/05/28 08:03:36;;;;;;;;;;;;;;;19.53;81.49;102056.31;5034360;28;20180;-88
2023/05/28 08:06:01;;;;;;;;;;;;;;;19.58;73.32;102057.59;5034805;28;19928;-85
2023/05/28 08:08:27;;;;;;;;;;;;;;;19.63;75.36;102063.44;5040236;28;19986;-86
2023/05/28 08:10:55;;;;;;;;;;;;;;;19.59;75.23;102066.63;5022151;28;19952;-86
2023/05/28 08:13:23;;;;;;;;;;;;;;;19.44;74.33;102061.66;5039524;28;19925;-89
2023/05/28 08:15:48;;;;;;;;;;;;;;;19.42;80.63;102071.84;5041790;28;20455;-89
2023/05/28 08:18:14;;;;;;;;;;;;;;;19.29;76.17;102064.00;5026545;28;19931;-85
2023/05/28 08:20:39;;;;;;;;;;;;;;;19.11;79.47;102063.03;5037916;28;20115;-87
2023/05/28 08:23:10;;;;;;;;;;;;;;;19.22;80.99;102062.88;5043447;28;19924;-89
2023/05/28 08:25:35;;;;;;;;;;;;;;;19.12;80.56;102057.44;5044153;28;19956;-87
2023/05/28 08:28:01;;;;;;;;;;;;;;;19.38;79.61;102054.09;5037633;28;19963;-87
2023/05/28 08:30:26;;;;;;;;;;;;;;;19.30;77.51;102056.69;5040217;28;19951;-89
2023/05/28 08:32:52;;;;;;;;;;;;;;;19.51;76.86;102045.59;5038573;28;19917;-87
2023/05/28 08:35:17;;;;;;;;;;;;;;;19.68;80.96;102045.78;5039489;28;19917;-85
2023/05/28 08:37:43;;;;;;;;;;;;;;;19.91;79.35;102043.56;5047510;28;20785;-86
2023/05/28 08:40:08;;;;;;;;;;;;;;;20.12;75.94;102039.69;5021774;28;20392;-86
2023/05/28 08:42:34;;;;;;;;;;;;;;;20.36;74.63;102041.84;5036621;28;19964;-83
2023/05/28 08:45:00;;;;;;;;;;;;;;;20.50;77.26;102046.75;5033592;28;19931;-83
2023/05/28 08:47:25;;;;;;;;;;;;;;;20.59;71.04;102050.41;5019681;28;19917;-83
2023/05/28 08:49:52;;;;;;;;;;;;;;;20.40;71.31;102045.09;5018739;28;19925;-80
2023/05/28 08:52:18;;;;;;;;;;;;;;;20.66;73.44;102045.16;5033074;28;19936;-83
2023/05/28 08:54:43;;;;;;;;;;;;;;;20.57;69.92;102044.22;5017001;28;19916;-80
2023/05/28 08:57:09;;;;;;;;;;;;;;;20.86;66.40;102040.41;5037885;28;19921;-82
2023/05/28 08:59:35;;;;;;;;;;;;;;;20.84;66.84;102039.72;5022277;28;19928;-82
2023/05/28 09:02:00;;;;;;;;;;;;;;;20.94;67.29;102032.31;5019194;28;20365;-82
2023/05/28 09:04:25;;;;;;;;;;;;;;;21.15;66.86;102032.97;5019813;28;21460;-82
2023/05/28 09:06:53;;;;;;;;;;;;;;;21.29;63.66;102032.34;5015846;28;19924;-80
2023/05/28 09:09:19;;;;;;;;;;;;;;;21.47;65.42;102020.50;5021029;28;20044;-84
2023/05/28 09:11:45;;;;;;;;;;;;;;;21.38;61.88;102025.06;5036660;28;19999;-81
2023/05/28 09:14:10;;;;;;;;;;;;;;;21.75;60.76;102020.31;5022020;28;19927;-85
2023/05/28 09:16:36;;;;;;;;;;;;;;;21.91;57.93;102011.31;5022274;28;19921;-84
2023/05/28 09:19:02;;;;;;;;;;;;;;;21.91;60.92;102035.91;5020445;28;19921;-84
2023/05/28 09:21:28;;;;;;;;;;;;;;;21.89;57.83;102016.94;5022010;28;20020;-83
2023/05/28 09:23:53;;;;;;;;;;;;;;;21.85;59.66;102024.59;5018013;28;19925;-83
2023/05/28 09:26:21;;;;;;;;;;;;;;;22.02;58.82;102017.31;5031836;28;19928;-85
2023/05/28 09:28:47;;;;;;;;;;;;;;;22.02;54.38;102017.31;5010927;28;19998;-83
2023/05/28 09:31:12;;;;;;;;;;;;;;;22.10;55.28;102007.44;5020025;28;20004;-81
2023/05/28 09:33:41;;;;;;;;;;;;;;;21.98;54.09;102015.94;5027969;28;19928;-81
2023/05/28 09:36:07;;;;;;;;;;;;;;;21.94;52.79;102016.44;5011845;28;20336;-82
2023/05/28 09:38:39;;;;;;;;;;;;;;;22.10;51.95;102019.22;5009590;28;19928;-85
2023/05/28 09:41:05;;;;;;;;;;;;;;;22.14;53.34;102017.00;5011195;28;19967;-80
2023/05/28 09:43:30;;;;;;;;;;;;;;;22.57;59.33;102016.94;5026666;28;19932;-85
2023/05/28 09:46:08;;;;;;;;;;;;;;;22.89;53.54;102017.94;5004085;28;19984;-85
2023/05/28 09:48:33;;;;;;;;;;;;;;;23.11;52.67;102020.97;5007812;28;20331;-84
2023/05/28 09:51:00;;;;;;;;;;;;;;;23.21;52.87;102014.31;5031842;28;19924;-85
2023/05/28 09:53:25;;;;;;;;;;;;;;;23.00;50.79;102017.56;5008807;28;19928;-81
2023/05/28 09:55:54;;;;;;;;;;;;;;;22.87;55.88;102018.09;5046597;28;19921;-87
2023/05/28 09:58:19;;;;;;;;;;;;;;;23.18;51.59;102017.38;5011547;28;19925;-82
2023/05/28 10:00:47;;;;;;;;;;;;;;;23.24;54.29;102015.00;5010017;28;19924;-84
2023/05/28 10:03:13;;;;;;;;;;;;;;;23.25;51.41;102017.53;5010123;28;19925;-85
2023/05/28 10:05:47;;;;;;;;;;;;;;;23.59;53.19;102013.66;5009860;28;20038;-86
2023/05/28 10:08:13;;;;;;;;;;;;;;;23.28;51.89;102011.72;5022563;28;19966;-83
2023/05/28 10:10:39;;;;;;;;;;;;;;;23.48;48.46;102012.16;5030446;28;19925;-87
2023/05/28 10:13:04;;;;;;;;;;;;;;;23.59;49.44;102010.06;5007958;28;19920;-85
2023/05/28 10:15:30;;;;;;;;;;;;;;;23.71;54.89;102014.13;5010013;28;20563;-86
2023/05/28 10:17:56;;;;;;;;;;;;;;;24.01;53.23;102008.00;5031353;28;19920;-86
2023/05/28 10:20:21;;;;;;;;;;;;;;;24.37;49.90;102010.16;5030497;28;19921;-85
2023/05/28 10:22:47;;;;;;;;;;;;;;;24.18;49.31;102006.00;5032594;28;20343;-85
2023/05/28 10:25:12;;;;;;;;;;;;;;;23.84;49.25;102016.28;5014366;28;19932;-85
2023/05/28 10:27:38;;;;;;;;;;;;;;;23.69;51.20;102012.63;5034079;28;19920;-86
2023/05/28 10:30:03;;;;;;;;;;;;;;;23.75;49.48;102004.53;5019963;28;19947;-86
2023/05/28 10:32:28;;;;;;;;;;;;;;;24.00;50.22;102004.41;5030719;28;19927;-83
2023/05/28 10:35:00;;;;;;;;;;;;;;;24.25;49.56;102010.56;5031625;28;19942;-85
2023/05/28 10:37:25;;;;;;;;;;;;;;;24.21;52.04;102019.34;5025608;28;19920;-85
2023/05/28 10:39:50;;;;;;;;;;;;;;;24.26;46.52;102017.78;5028284;28;20434;-86
2023/05/28 10:42:16;;;;;;;;;;;;;;;24.39;47.68;102016.31;5023508;28;19925;-84
2023/05/28 10:44:48;;;;;;;;;;;;;;;24.65;47.09;102015.09;5024475;28;20025;-83
2023/05/28 10:47:14;;;;;;;;;;;;;;;24.97;49.56;102013.94;5024878;28;20414;-84
2023/05/28 10:49:46;;;;;;;;;;;;;;;24.78;48.11;102014.50;5009063;28;19927;-83
2023/05/28 10:52:20;;;;;;;;;;;;;;;24.76;48.31;102016.56;5008746;28;20355;-82
2023/05/28 10:54:45;;;;;;;;;;;;;;;24.67;46.64;102011.09;5021628;28;20529;-82
2023/05/28 10:57:15;;;;;;;;;;;;;;;24.91;48.78;102020.19;5028198;28;20426;-87
2023/05/28 10:59:47;;;;;;;;;;;;;;;25.26;45.67;102014.19;5024109;28;19960;-84
2023/05/28 11:02:15;;;;;;;;;;;;;;;25.10;44.98;102013.31;5024807;28;20408;-84
2023/05/28 11:04:43;;;;;;;;;;;;;;;24.67;44.75;102007.53;5028180;28;20378;-84
2023/05/28 11:07:08;;;;;;;;;;;;;;;24.91;48.09;102008.34;5027083;28;20426;-84
2023/05/28 11:09:33;;;;;;;;;;;;;;;25.16;45.03;102014.47;5009382;28;20204;-84
2023/05/28 11:12:02;;;;;;;;;;;;;;;25.04;44.55;102022.28;5008528;28;20020;-83
2023/05/28 11:14:36;;;;;;;;;;;;;;;25.15;46.24;102013.59;5029432;28;19964;-84
2023/05/28 11:17:05;;;;;;;;;;;;;;;25.53;44.45;102011.84;5007631;28;19921;-84
2023/05/28 11:19:30;;;;;;;;;;;;;;;25.92;42.52;102016.09;5021905;28;19925;-85
2023/05/28 11:21:56;;;;;;;;;;;;;;;25.98;42.70;102011.72;5033637;28;19921;-83
2023/05/28 11:24:21;;;;;;;;;;;;;;;26.11;43.95;102011.88;5020634;28;19921;-84
2023/05/28 11:26:46;;;;;;;;;;;;;;;26.34;45.18;102003.50;5008550;28;19928;-83
2023/05/28 11:29:13;;;;;;;;;;;;;;;26.89;41.68;102007.56;5021174;28;19917;-79
2023/05/28 11:31:41;;;;;;;;;;;;;;;27.04;41.75;102000.03;5022361;28;19953;-84
2023/05/28 11:34:07;;;;;;;;;;;;;;;27.56;42.35;101999.72;5023570;28;20302;-85
2023/05/28 11:36:39;;;;;;;;;;;;;;;28.11;42.37;101999.72;5003946;28;19925;-83
2023/05/28 11:39:04;;;;;;;;;;;;;;;28.76;40.02;101994.69;5020905;28;19917;-84
2023/05/28 11:41:30;;;;;;;;;;;;;;;28.64;37.90;101998.06;5033971;28;19925;-82
2023/05/28 11:43:55;;;;;;;;;;;;;;;29.14;40.61;102005.91;5020957;28;20012;-85
2023/05/28 11:46:23;;;;;;;;;;;;;;;29.40;36.96;102003.31;5021414;28;19936;-84
2023/05/28 11:48:49;;;;;;;;;;;;;;;29.44;37.79;102002.66;5034888;28;19933;-81
2023/05/28 11:51:14;;;;;;;;;;;;;;;30.11;35.40;101992.38;5032361;28;19924;-84
2023/05/28 11:53:40;;;;;;;;;;;;;;;30.23;34.94;102010.81;5027493;28;19924;-83
2023/05/28 11:56:05;;;;;;;;;;;;;;;29.97;35.54;101999.91;5031268;28;19979;-84
2023/05/28 11:58:31;;;;;;;;;;;;;;;30.15;34.43;101994.44;5032277;28;19929;-81
2023/05/28 12:00:56;;;;;;;;;;;;;;;29.88;36.99;102002.06;5035367;28;19921;-82
2023/05/28 12:03:24;;;;;;;;;;;;;;;29.58;34.25;102011.75;5031791;28;20278;-85
2023/05/28 12:05:50;;;;;;;;;;;;;;;28.89;40.17;102003.81;5022936;28;20613;-85
2023/05/28 12:08:17;;;;;;;;;;;;;;;28.88;38.65;101998.50;5029664;28;20431;-84
2023/05/28 12:10:42;;;;;;;;;;;;;;;28.95;36.93;102004.03;5035489;28;19979;-84
2023/05/28 12:13:07;;;;;;;;;;;;;;;29.47;36.79;102010.53;5026455;28;20019;-85
2023/05/28 12:15:32;;;;;;;;;;;;;;;29.31;34.99;102003.50;5037687;28;20003;-81
2023/05/28 12:18:00;;;;;;;;;;;;;;;29.69;32.99;102007.44;5047601;28;19963;-85
2023/05/28 12:20:28;;;;;;;;;;;;;;;29.11;39.67;101999.97;5023910;28;20306;-85
2023/05/28 12:22:59;;;;;;;;;;;;;;;29.04;37.46;102000.81;5026944;28;19925;-83
2023/05/28 12:25:25;;;;;;;;;;;;;;;28.77;38.39;101997.25;5035445;28;19927;-85